sensor_id;sensor_type;location;lat;lon;timestamp;P1;durP1;ratioP1;P2;durP2;ratioP2
85056;SDS011;75393;49.516;8.662;2024-01-07T00:01:23;2.65;;;1.40;;
85056;SDS011;75393;49.516;8.662;2024-01-07T00:03:49;1.33;;;1.23;;
85056;SDS011;75393;49.516;8.662;2024-01-07T00:06:16;1.27;;;1.17;;
85056;SDS011;75393;49.516;8.662;2024-01-07T00:08:44;2.08;;;1.30;;
85056;SDS011;75393;49.516;8.662;2024-01-07T00:11:09;2.17;;;1.33;;
85056;SDS011;75393;49.516;8.662;2024-01-07T00:13:35;1.92;;;1.20;;
85056;SDS011;75393;49.516;8.662;2024-01-07T00:16:00;1.75;;;1.17;;
85056;SDS011;75393;49.516;8.662;2024-01-07T00:18:26;1.35;;;1.15;;
85056;SDS011;75393;49.516;8.662;2024-01-07T00:20:52;2.78;;;1.20;;
85056;SDS011;75393;49.516;8.662;2024-01-07T00:23:18;2.10;;;1.10;;
85056;SDS011;75393;49.516;8.662;2024-01-07T00:25:43;1.65;;;1.10;;
85056;SDS011;75393;49.516;8.662;2024-01-07T00:28:08;3.03;;;1.30;;
85056;SDS011;75393;49.516;8.662;2024-01-07T00:30:34;2.08;;;1.40;;
85056;SDS011;75393;49.516;8.662;2024-01-07T00:33:00;1.33;;;1.10;;
85056;SDS011;75393;49.516;8.662;2024-01-07T00:35:25;1.73;;;1.50;;
85056;SDS011;75393;49.516;8.662;2024-01-07T00:37:50;1.90;;;1.45;;
85056;SDS011;75393;49.516;8.662;2024-01-07T00:40:16;2.17;;;1.33;;
85056;SDS011;75393;49.516;8.662;2024-01-07T00:42:41;1.92;;;1.33;;
85056;SDS011;75393;49.516;8.662;2024-01-07T00:45:07;1.83;;;1.48;;
85056;SDS011;75393;49.516;8.662;2024-01-07T00:47:33;1.52;;;1.00;;
85056;SDS011;75393;49.516;8.662;2024-01-07T00:49:59;1.30;;;1.20;;
85056;SDS011;75393;49.516;8.662;2024-01-07T00:52:27;1.43;;;1.33;;
85056;SDS011;75393;49.516;8.662;2024-01-07T00:54:52;2.42;;;1.20;;
85056;SDS011;75393;49.516;8.662;2024-01-07T00:57:18;1.25;;;1.10;;
85056;SDS011;75393;49.516;8.662;2024-01-07T00:59:43;1.23;;;0.98;;
85056;SDS011;75393;49.516;8.662;2024-01-07T01:02:08;1.87;;;1.00;;
85056;SDS011;75393;49.516;8.662;2024-01-07T01:04:34;1.60;;;1.10;;
85056;SDS011;75393;49.516;8.662;2024-01-07T01:06:59;2.23;;;1.23;;
85056;SDS011;75393;49.516;8.662;2024-01-07T01:09:24;1.53;;;1.07;;
85056;SDS011;75393;49.516;8.662;2024-01-07T01:11:53;1.45;;;1.30;;
85056;SDS011;75393;49.516;8.662;2024-01-07T01:14:21;1.23;;;0.98;;
85056;SDS011;75393;49.516;8.662;2024-01-07T01:16:46;2.13;;;1.40;;
85056;SDS011;75393;49.516;8.662;2024-01-07T01:19:11;2.67;;;0.90;;
85056;SDS011;75393;49.516;8.662;2024-01-07T01:21:37;2.08;;;1.20;;
85056;SDS011;75393;49.516;8.662;2024-01-07T01:24:02;2.30;;;1.37;;
85056;SDS011;75393;49.516;8.662;2024-01-07T01:26:28;1.83;;;0.93;;
85056;SDS011;75393;49.516;8.662;2024-01-07T01:28:53;2.10;;;1.13;;
85056;SDS011;75393;49.516;8.662;2024-01-07T01:31:18;1.23;;;1.00;;
85056;SDS011;75393;49.516;8.662;2024-01-07T01:33:43;3.17;;;1.10;;
85056;SDS011;75393;49.516;8.662;2024-01-07T01:36:09;1.90;;;1.20;;
85056;SDS011;75393;49.516;8.662;2024-01-07T01:38:34;2.08;;;0.90;;
85056;SDS011;75393;49.516;8.662;2024-01-07T01:41:00;1.40;;;1.30;;
85056;SDS011;75393;49.516;8.662;2024-01-07T01:43:26;1.50;;;1.10;;
85056;SDS011;75393;49.516;8.662;2024-01-07T01:45:52;1.85;;;1.15;;
85056;SDS011;75393;49.516;8.662;2024-01-07T01:48:18;3.97;;;1.05;;
85056;SDS011;75393;49.516;8.662;2024-01-07T01:50:44;1.50;;;0.98;;
85056;SDS011;75393;49.516;8.662;2024-01-07T01:53:09;1.85;;;0.95;;
85056;SDS011;75393;49.516;8.662;2024-01-07T01:55:35;1.40;;;1.00;;
85056;SDS011;75393;49.516;8.662;2024-01-07T01:58:01;2.07;;;1.07;;
85056;SDS011;75393;49.516;8.662;2024-01-07T02:00:29;1.90;;;1.20;;
85056;SDS011;75393;49.516;8.662;2024-01-07T02:02:54;2.58;;;1.30;;
85056;SDS011;75393;49.516;8.662;2024-01-07T02:05:20;1.73;;;1.23;;
85056;SDS011;75393;49.516;8.662;2024-01-07T02:07:45;1.95;;;1.02;;
85056;SDS011;75393;49.516;8.662;2024-01-07T02:10:11;1.60;;;1.20;;
85056;SDS011;75393;49.516;8.662;2024-01-07T02:12:37;3.13;;;0.93;;
85056;SDS011;75393;49.516;8.662;2024-01-07T02:15:02;1.02;;;0.70;;
85056;SDS011;75393;49.516;8.662;2024-01-07T02:17:28;1.13;;;1.02;;
85056;SDS011;75393;49.516;8.662;2024-01-07T02:19:53;1.55;;;0.90;;
85056;SDS011;75393;49.516;8.662;2024-01-07T02:22:19;3.65;;;1.33;;
85056;SDS011;75393;49.516;8.662;2024-01-07T02:24:44;1.60;;;1.02;;
85056;SDS011;75393;49.516;8.662;2024-01-07T02:27:09;1.17;;;1.03;;
85056;SDS011;75393;49.516;8.662;2024-01-07T02:29:35;1.83;;;0.90;;
85056;SDS011;75393;49.516;8.662;2024-01-07T02:32:00;1.50;;;1.00;;
85056;SDS011;75393;49.516;8.662;2024-01-07T02:34:25;1.33;;;1.13;;
85056;SDS011;75393;49.516;8.662;2024-01-07T02:36:51;1.38;;;0.90;;
85056;SDS011;75393;49.516;8.662;2024-01-07T02:39:16;1.17;;;0.80;;
85056;SDS011;75393;49.516;8.662;2024-01-07T02:41:42;2.58;;;1.00;;
85056;SDS011;75393;49.516;8.662;2024-01-07T02:44:07;1.77;;;1.02;;
85056;SDS011;75393;49.516;8.662;2024-01-07T02:46:33;1.30;;;1.00;;
85056;SDS011;75393;49.516;8.662;2024-01-07T02:48:58;1.48;;;1.23;;
85056;SDS011;75393;49.516;8.662;2024-01-07T02:51:23;1.10;;;1.00;;
85056;SDS011;75393;49.516;8.662;2024-01-07T02:53:48;1.13;;;0.95;;
85056;SDS011;75393;49.516;8.662;2024-01-07T02:56:14;1.00;;;0.90;;
85056;SDS011;75393;49.516;8.662;2024-01-07T02:58:39;1.45;;;1.00;;
85056;SDS011;75393;49.516;8.662;2024-01-07T03:01:08;1.27;;;0.88;;
85056;SDS011;75393;49.516;8.662;2024-01-07T03:03:34;1.00;;;0.90;;
85056;SDS011;75393;49.516;8.662;2024-01-07T03:05:59;1.03;;;0.80;;
85056;SDS011;75393;49.516;8.662;2024-01-07T03:08:24;1.50;;;0.98;;
85056;SDS011;75393;49.516;8.662;2024-01-07T03:10:49;1.73;;;0.90;;
85056;SDS011;75393;49.516;8.662;2024-01-07T03:13:15;1.43;;;1.10;;
85056;SDS011;75393;49.516;8.662;2024-01-07T03:15:40;1.07;;;0.97;;
85056;SDS011;75393;49.516;8.662;2024-01-07T03:18:05;1.33;;;1.03;;
85056;SDS011;75393;49.516;8.662;2024-01-07T03:20:31;1.77;;;1.20;;
85056;SDS011;75393;49.516;8.662;2024-01-07T03:22:56;2.03;;;1.02;;
85056;SDS011;75393;49.516;8.662;2024-01-07T03:25:21;1.63;;;0.90;;
85056;SDS011;75393;49.516;8.662;2024-01-07T03:27:47;1.30;;;0.80;;
85056;SDS011;75393;49.516;8.662;2024-01-07T03:30:12;3.08;;;1.00;;
85056;SDS011;75393;49.516;8.662;2024-01-07T03:32:40;1.30;;;1.20;;
85056;SDS011;75393;49.516;8.662;2024-01-07T03:35:06;1.67;;;1.15;;
85056;SDS011;75393;49.516;8.662;2024-01-07T03:37:33;2.65;;;0.70;;
85056;SDS011;75393;49.516;8.662;2024-01-07T03:39:59;1.50;;;1.13;;
85056;SDS011;75393;49.516;8.662;2024-01-07T03:42:24;2.95;;;1.30;;
85056;SDS011;75393;49.516;8.662;2024-01-07T03:44:50;1.88;;;1.23;;
85056;SDS011;75393;49.516;8.662;2024-01-07T03:47:15;0.98;;;0.80;;
85056;SDS011;75393;49.516;8.662;2024-01-07T03:49:41;3.47;;;1.30;;
85056;SDS011;75393;49.516;8.662;2024-01-07T03:52:06;1.20;;;1.10;;
85056;SDS011;75393;49.516;8.662;2024-01-07T03:54:35;1.52;;;0.80;;
85056;SDS011;75393;49.516;8.662;2024-01-07T03:57:00;0.85;;;0.85;;
85056;SDS011;75393;49.516;8.662;2024-01-07T03:59:25;1.40;;;1.00;;
85056;SDS011;75393;49.516;8.662;2024-01-07T04:01:55;1.80;;;1.13;;
85056;SDS011;75393;49.516;8.662;2024-01-07T04:04:21;2.00;;;1.05;;
85056;SDS011;75393;49.516;8.662;2024-01-07T04:06:46;1.30;;;1.20;;
85056;SDS011;75393;49.516;8.662;2024-01-07T04:09:12;1.33;;;0.88;;
85056;SDS011;75393;49.516;8.662;2024-01-07T04:11:40;1.15;;;0.80;;
85056;SDS011;75393;49.516;8.662;2024-01-07T04:14:06;2.58;;;0.70;;
85056;SDS011;75393;49.516;8.662;2024-01-07T04:16:32;2.22;;;1.02;;
85056;SDS011;75393;49.516;8.662;2024-01-07T04:18:57;1.40;;;0.90;;
85056;SDS011;75393;49.516;8.662;2024-01-07T04:21:22;0.93;;;0.83;;
85056;SDS011;75393;49.516;8.662;2024-01-07T04:23:48;0.98;;;0.80;;
85056;SDS011;75393;49.516;8.662;2024-01-07T04:26:13;1.88;;;1.20;;
85056;SDS011;75393;49.516;8.662;2024-01-07T04:28:40;0.80;;;0.77;;
85056;SDS011;75393;49.516;8.662;2024-01-07T04:31:06;1.00;;;0.73;;
85056;SDS011;75393;49.516;8.662;2024-01-07T04:33:31;1.42;;;0.90;;
85056;SDS011;75393;49.516;8.662;2024-01-07T04:35:56;1.75;;;1.00;;
85056;SDS011;75393;49.516;8.662;2024-01-07T04:38:23;1.05;;;0.95;;
85056;SDS011;75393;49.516;8.662;2024-01-07T04:40:56;1.25;;;1.08;;
85056;SDS011;75393;49.516;8.662;2024-01-07T04:45:46;1.38;;;0.65;;
85056;SDS011;75393;49.516;8.662;2024-01-07T04:48:12;1.30;;;0.88;;
85056;SDS011;75393;49.516;8.662;2024-01-07T04:50:38;0.93;;;0.73;;
85056;SDS011;75393;49.516;8.662;2024-01-07T04:53:05;1.67;;;0.80;;
85056;SDS011;75393;49.516;8.662;2024-01-07T04:55:30;1.07;;;0.90;;
85056;SDS011;75393;49.516;8.662;2024-01-07T04:57:55;0.90;;;0.80;;
85056;SDS011;75393;49.516;8.662;2024-01-07T05:00:20;1.10;;;0.97;;
85056;SDS011;75393;49.516;8.662;2024-01-07T05:02:46;2.15;;;0.90;;
85056;SDS011;75393;49.516;8.662;2024-01-07T05:05:11;1.40;;;1.30;;
85056;SDS011;75393;49.516;8.662;2024-01-07T05:07:37;1.52;;;0.90;;
85056;SDS011;75393;49.516;8.662;2024-01-07T05:10:02;1.27;;;0.90;;
85056;SDS011;75393;49.516;8.662;2024-01-07T05:12:28;1.73;;;1.10;;
85056;SDS011;75393;49.516;8.662;2024-01-07T05:14:53;1.35;;;0.68;;
85056;SDS011;75393;49.516;8.662;2024-01-07T05:17:19;1.10;;;0.70;;
85056;SDS011;75393;49.516;8.662;2024-01-07T05:19:44;1.42;;;0.88;;
85056;SDS011;75393;49.516;8.662;2024-01-07T05:22:09;1.60;;;0.70;;
85056;SDS011;75393;49.516;8.662;2024-01-07T05:24:37;1.23;;;0.75;;
85056;SDS011;75393;49.516;8.662;2024-01-07T05:27:06;1.50;;;1.10;;
85056;SDS011;75393;49.516;8.662;2024-01-07T05:29:31;0.90;;;0.88;;
85056;SDS011;75393;49.516;8.662;2024-01-07T05:31:58;1.90;;;1.00;;
85056;SDS011;75393;49.516;8.662;2024-01-07T05:34:25;1.00;;;0.90;;
85056;SDS011;75393;49.516;8.662;2024-01-07T05:36:51;0.90;;;0.90;;
85056;SDS011;75393;49.516;8.662;2024-01-07T05:39:16;0.90;;;0.90;;
85056;SDS011;75393;49.516;8.662;2024-01-07T05:41:41;0.90;;;0.77;;
85056;SDS011;75393;49.516;8.662;2024-01-07T05:44:07;1.95;;;0.98;;
85056;SDS011;75393;49.516;8.662;2024-01-07T05:46:33;0.85;;;0.82;;
85056;SDS011;75393;49.516;8.662;2024-01-07T05:48:58;0.90;;;0.65;;
85056;SDS011;75393;49.516;8.662;2024-01-07T05:51:24;1.52;;;0.90;;
85056;SDS011;75393;49.516;8.662;2024-01-07T05:53:49;2.78;;;1.00;;
85056;SDS011;75393;49.516;8.662;2024-01-07T05:56:14;1.45;;;1.35;;
85056;SDS011;75393;49.516;8.662;2024-01-07T05:58:40;1.25;;;0.80;;
85056;SDS011;75393;49.516;8.662;2024-01-07T06:01:06;3.47;;;1.10;;
85056;SDS011;75393;49.516;8.662;2024-01-07T06:03:33;1.33;;;0.80;;
85056;SDS011;75393;49.516;8.662;2024-01-07T06:05:58;1.80;;;0.75;;
85056;SDS011;75393;49.516;8.662;2024-01-07T06:08:23;2.13;;;1.05;;
85056;SDS011;75393;49.516;8.662;2024-01-07T06:10:49;0.98;;;0.50;;
85056;SDS011;75393;49.516;8.662;2024-01-07T06:13:14;0.88;;;0.77;;
85056;SDS011;75393;49.516;8.662;2024-01-07T06:15:40;1.17;;;0.90;;
85056;SDS011;75393;49.516;8.662;2024-01-07T06:18:05;1.13;;;1.00;;
85056;SDS011;75393;49.516;8.662;2024-01-07T06:20:30;1.45;;;0.68;;
85056;SDS011;75393;49.516;8.662;2024-01-07T06:22:56;1.40;;;0.80;;
85056;SDS011;75393;49.516;8.662;2024-01-07T06:25:21;2.63;;;0.60;;
85056;SDS011;75393;49.516;8.662;2024-01-07T06:27:46;2.15;;;1.00;;
85056;SDS011;75393;49.516;8.662;2024-01-07T06:30:12;1.70;;;1.00;;
85056;SDS011;75393;49.516;8.662;2024-01-07T06:32:38;1.70;;;1.00;;
85056;SDS011;75393;49.516;8.662;2024-01-07T06:35:06;1.15;;;0.80;;
85056;SDS011;75393;49.516;8.662;2024-01-07T06:37:32;2.40;;;0.98;;
85056;SDS011;75393;49.516;8.662;2024-01-07T06:39:57;1.25;;;0.80;;
85056;SDS011;75393;49.516;8.662;2024-01-07T06:42:23;1.55;;;0.70;;
85056;SDS011;75393;49.516;8.662;2024-01-07T06:44:48;1.92;;;0.80;;
85056;SDS011;75393;49.516;8.662;2024-01-07T06:47:14;2.65;;;1.00;;
85056;SDS011;75393;49.516;8.662;2024-01-07T06:49:39;2.03;;;0.70;;
85056;SDS011;75393;49.516;8.662;2024-01-07T06:52:05;1.20;;;0.70;;
85056;SDS011;75393;49.516;8.662;2024-01-07T06:54:30;1.30;;;0.60;;
85056;SDS011;75393;49.516;8.662;2024-01-07T06:56:55;1.02;;;0.70;;
85056;SDS011;75393;49.516;8.662;2024-01-07T06:59:21;1.70;;;0.83;;
85056;SDS011;75393;49.516;8.662;2024-01-07T07:01:46;2.43;;;0.90;;
85056;SDS011;75393;49.516;8.662;2024-01-07T07:04:11;0.60;;;0.60;;
85056;SDS011;75393;49.516;8.662;2024-01-07T07:06:37;0.80;;;0.80;;
85056;SDS011;75393;49.516;8.662;2024-01-07T07:09:02;1.17;;;1.08;;
85056;SDS011;75393;49.516;8.662;2024-01-07T07:11:27;1.23;;;0.75;;
85056;SDS011;75393;49.516;8.662;2024-01-07T07:13:53;0.83;;;0.70;;
85056;SDS011;75393;49.516;8.662;2024-01-07T07:16:18;1.37;;;0.90;;
85056;SDS011;75393;49.516;8.662;2024-01-07T07:18:43;1.77;;;0.80;;
85056;SDS011;75393;49.516;8.662;2024-01-07T07:21:08;2.45;;;0.90;;
85056;SDS011;75393;49.516;8.662;2024-01-07T07:23:34;4.60;;;0.90;;
85056;SDS011;75393;49.516;8.662;2024-01-07T07:25:59;2.33;;;0.77;;
85056;SDS011;75393;49.516;8.662;2024-01-07T07:28:24;3.03;;;0.93;;
85056;SDS011;75393;49.516;8.662;2024-01-07T07:30:50;1.33;;;0.77;;
85056;SDS011;75393;49.516;8.662;2024-01-07T07:33:15;1.05;;;0.75;;
85056;SDS011;75393;49.516;8.662;2024-01-07T07:35:40;1.30;;;1.00;;
85056;SDS011;75393;49.516;8.662;2024-01-07T07:38:06;2.13;;;0.77;;
85056;SDS011;75393;49.516;8.662;2024-01-07T07:40:32;1.52;;;1.00;;
85056;SDS011;75393;49.516;8.662;2024-01-07T07:42:57;1.23;;;0.63;;
85056;SDS011;75393;49.516;8.662;2024-01-07T07:45:23;1.20;;;0.85;;
85056;SDS011;75393;49.516;8.662;2024-01-07T07:47:48;0.95;;;0.60;;
85056;SDS011;75393;49.516;8.662;2024-01-07T07:50:13;1.50;;;0.95;;
85056;SDS011;75393;49.516;8.662;2024-01-07T07:52:39;1.02;;;0.80;;
85056;SDS011;75393;49.516;8.662;2024-01-07T07:55:06;0.93;;;0.80;;
85056;SDS011;75393;49.516;8.662;2024-01-07T07:57:34;1.52;;;0.93;;
85056;SDS011;75393;49.516;8.662;2024-01-07T07:59:59;1.77;;;0.80;;
85056;SDS011;75393;49.516;8.662;2024-01-07T08:02:27;1.05;;;0.70;;
85056;SDS011;75393;49.516;8.662;2024-01-07T08:04:52;1.80;;;0.90;;
85056;SDS011;75393;49.516;8.662;2024-01-07T08:07:17;1.75;;;0.95;;
85056;SDS011;75393;49.516;8.662;2024-01-07T08:09:43;3.97;;;0.93;;
85056;SDS011;75393;49.516;8.662;2024-01-07T08:12:08;0.75;;;0.70;;
85056;SDS011;75393;49.516;8.662;2024-01-07T08:14:34;1.35;;;0.90;;
85056;SDS011;75393;49.516;8.662;2024-01-07T08:19:45;3.25;;;1.00;;
85056;SDS011;75393;49.516;8.662;2024-01-07T08:24:35;2.97;;;1.42;;
85056;SDS011;75393;49.516;8.662;2024-01-07T08:27:01;1.83;;;1.20;;
85056;SDS011;75393;49.516;8.662;2024-01-07T08:29:28;2.92;;;1.10;;
85056;SDS011;75393;49.516;8.662;2024-01-07T08:31:53;4.18;;;1.40;;
85056;SDS011;75393;49.516;8.662;2024-01-07T08:34:18;2.17;;;1.25;;
85056;SDS011;75393;49.516;8.662;2024-01-07T08:36:44;2.15;;;1.90;;
85056;SDS011;75393;49.516;8.662;2024-01-07T08:39:09;4.22;;;1.98;;
85056;SDS011;75393;49.516;8.662;2024-01-07T08:41:36;5.20;;;1.90;;
85056;SDS011;75393;49.516;8.662;2024-01-07T08:44:01;2.47;;;1.63;;
85056;SDS011;75393;49.516;8.662;2024-01-07T08:46:26;3.80;;;2.00;;
85056;SDS011;75393;49.516;8.662;2024-01-07T08:48:51;3.53;;;1.83;;
85056;SDS011;75393;49.516;8.662;2024-01-07T08:51:17;4.30;;;1.93;;
85056;SDS011;75393;49.516;8.662;2024-01-07T08:53:42;4.97;;;1.90;;
85056;SDS011;75393;49.516;8.662;2024-01-07T08:56:07;3.97;;;2.20;;
85056;SDS011;75393;49.516;8.662;2024-01-07T08:58:33;3.20;;;1.80;;
85056;SDS011;75393;49.516;8.662;2024-01-07T09:00:59;3.95;;;1.90;;
85056;SDS011;75393;49.516;8.662;2024-01-07T09:03:24;5.47;;;1.80;;
85056;SDS011;75393;49.516;8.662;2024-01-07T09:05:49;2.70;;;1.65;;
85056;SDS011;75393;49.516;8.662;2024-01-07T09:08:15;4.45;;;2.00;;
85056;SDS011;75393;49.516;8.662;2024-01-07T09:10:40;4.38;;;1.70;;
85056;SDS011;75393;49.516;8.662;2024-01-07T09:13:06;3.88;;;2.00;;
85056;SDS011;75393;49.516;8.662;2024-01-07T09:15:31;2.75;;;1.85;;
85056;SDS011;75393;49.516;8.662;2024-01-07T09:17:56;2.58;;;1.88;;
85056;SDS011;75393;49.516;8.662;2024-01-07T09:20:22;2.85;;;1.90;;
85056;SDS011;75393;49.516;8.662;2024-01-07T09:22:47;2.67;;;1.60;;
85056;SDS011;75393;49.516;8.662;2024-01-07T09:25:13;3.83;;;1.85;;
85056;SDS011;75393;49.516;8.662;2024-01-07T09:27:38;3.70;;;2.00;;
85056;SDS011;75393;49.516;8.662;2024-01-07T09:30:04;4.18;;;2.00;;
85056;SDS011;75393;49.516;8.662;2024-01-07T09:32:30;2.22;;;1.73;;
85056;SDS011;75393;49.516;8.662;2024-01-07T09:34:56;2.92;;;1.63;;
85056;SDS011;75393;49.516;8.662;2024-01-07T09:37:22;5.10;;;1.80;;
85056;SDS011;75393;49.516;8.662;2024-01-07T09:39:48;3.30;;;2.10;;
85056;SDS011;75393;49.516;8.662;2024-01-07T09:42:14;2.95;;;1.75;;
85056;SDS011;75393;49.516;8.662;2024-01-07T09:44:41;2.08;;;1.30;;
85056;SDS011;75393;49.516;8.662;2024-01-07T09:47:09;3.45;;;1.40;;
85056;SDS011;75393;49.516;8.662;2024-01-07T09:49:35;3.13;;;1.67;;
85056;SDS011;75393;49.516;8.662;2024-01-07T09:52:01;2.42;;;1.20;;
85056;SDS011;75393;49.516;8.662;2024-01-07T09:54:29;3.20;;;1.55;;
85056;SDS011;75393;49.516;8.662;2024-01-07T09:56:57;2.97;;;1.58;;
85056;SDS011;75393;49.516;8.662;2024-01-07T09:59:28;3.00;;;1.55;;
85056;SDS011;75393;49.516;8.662;2024-01-07T10:01:54;3.25;;;1.50;;
85056;SDS011;75393;49.516;8.662;2024-01-07T10:04:20;2.95;;;1.45;;
85056;SDS011;75393;49.516;8.662;2024-01-07T10:06:46;1.80;;;1.30;;
85056;SDS011;75393;49.516;8.662;2024-01-07T10:09:14;2.05;;;1.20;;
85056;SDS011;75393;49.516;8.662;2024-01-07T10:11:40;3.90;;;1.30;;
85056;SDS011;75393;49.516;8.662;2024-01-07T10:14:05;3.42;;;1.25;;
85056;SDS011;75393;49.516;8.662;2024-01-07T10:16:31;5.43;;;1.70;;
85056;SDS011;75393;49.516;8.662;2024-01-07T10:18:58;2.88;;;1.45;;
85056;SDS011;75393;49.516;8.662;2024-01-07T10:21:23;2.33;;;1.40;;
85056;SDS011;75393;49.516;8.662;2024-01-07T10:23:48;5.27;;;1.63;;
85056;SDS011;75393;49.516;8.662;2024-01-07T10:26:14;2.30;;;1.25;;
85056;SDS011;75393;49.516;8.662;2024-01-07T10:28:39;3.63;;;1.40;;
85056;SDS011;75393;49.516;8.662;2024-01-07T10:31:05;2.85;;;1.67;;
85056;SDS011;75393;49.516;8.662;2024-01-07T10:33:31;3.20;;;1.65;;
85056;SDS011;75393;49.516;8.662;2024-01-07T10:36:04;2.15;;;1.80;;
85056;SDS011;75393;49.516;8.662;2024-01-07T10:38:34;1.60;;;1.50;;
85056;SDS011;75393;49.516;8.662;2024-01-07T10:41:00;3.22;;;1.60;;
85056;SDS011;75393;49.516;8.662;2024-01-07T10:43:28;5.60;;;1.75;;
85056;SDS011;75393;49.516;8.662;2024-01-07T10:45:54;2.72;;;1.65;;
85056;SDS011;75393;49.516;8.662;2024-01-07T10:48:20;2.88;;;1.63;;
85056;SDS011;75393;49.516;8.662;2024-01-07T10:50:47;3.47;;;1.70;;
85056;SDS011;75393;49.516;8.662;2024-01-07T10:53:17;2.95;;;1.70;;
85056;SDS011;75393;49.516;8.662;2024-01-07T10:55:44;3.65;;;1.42;;
85056;SDS011;75393;49.516;8.662;2024-01-07T10:58:18;2.60;;;1.90;;
85056;SDS011;75393;49.516;8.662;2024-01-07T11:00:44;3.15;;;1.67;;
85056;SDS011;75393;49.516;8.662;2024-01-07T11:03:11;2.50;;;1.60;;
85056;SDS011;75393;49.516;8.662;2024-01-07T11:08:35;1.70;;;1.60;;
85056;SDS011;75393;49.516;8.662;2024-01-07T11:11:04;3.78;;;1.70;;
85056;SDS011;75393;49.516;8.662;2024-01-07T11:13:33;2.83;;;1.95;;
85056;SDS011;75393;49.516;8.662;2024-01-07T11:16:03;2.80;;;1.77;;
85056;SDS011;75393;49.516;8.662;2024-01-07T11:21:02;5.90;;;2.53;;
85056;SDS011;75393;49.516;8.662;2024-01-07T11:23:29;3.92;;;1.67;;
85056;SDS011;75393;49.516;8.662;2024-01-07T11:26:02;3.03;;;1.70;;
85056;SDS011;75393;49.516;8.662;2024-01-07T11:31:16;2.42;;;1.60;;
85056;SDS011;75393;49.516;8.662;2024-01-07T11:33:43;2.80;;;1.67;;
85056;SDS011;75393;49.516;8.662;2024-01-07T11:36:13;2.72;;;1.80;;
85056;SDS011;75393;49.516;8.662;2024-01-07T11:38:47;2.63;;;1.90;;
85056;SDS011;75393;49.516;8.662;2024-01-07T11:41:13;2.50;;;1.77;;
85056;SDS011;75393;49.516;8.662;2024-01-07T11:43:51;4.47;;;1.70;;
85056;SDS011;75393;49.516;8.662;2024-01-07T11:46:20;2.65;;;1.65;;
85056;SDS011;75393;49.516;8.662;2024-01-07T11:48:50;4.05;;;1.88;;
85056;SDS011;75393;49.516;8.662;2024-01-07T11:51:17;3.78;;;1.55;;
85056;SDS011;75393;49.516;8.662;2024-01-07T11:53:45;2.42;;;1.95;;
85056;SDS011;75393;49.516;8.662;2024-01-07T11:56:12;2.47;;;1.80;;
85056;SDS011;75393;49.516;8.662;2024-01-07T11:58:37;3.45;;;2.08;;
85056;SDS011;75393;49.516;8.662;2024-01-07T12:01:02;2.08;;;1.88;;
85056;SDS011;75393;49.516;8.662;2024-01-07T12:03:28;2.25;;;1.90;;
85056;SDS011;75393;49.516;8.662;2024-01-07T12:05:53;22.50;;;2.38;;
85056;SDS011;75393;49.516;8.662;2024-01-07T12:08:18;2.42;;;1.90;;
85056;SDS011;75393;49.516;8.662;2024-01-07T12:10:45;2.72;;;1.90;;
85056;SDS011;75393;49.516;8.662;2024-01-07T12:13:10;2.00;;;1.60;;
85056;SDS011;75393;49.516;8.662;2024-01-07T12:15:37;7.70;;;1.85;;
85056;SDS011;75393;49.516;8.662;2024-01-07T12:18:04;3.40;;;1.85;;
85056;SDS011;75393;49.516;8.662;2024-01-07T12:20:29;4.05;;;1.95;;
85056;SDS011;75393;49.516;8.662;2024-01-07T12:23:07;4.75;;;1.88;;
85056;SDS011;75393;49.516;8.662;2024-01-07T12:25:33;4.57;;;2.10;;
85056;SDS011;75393;49.516;8.662;2024-01-07T12:27:59;7.20;;;2.88;;
85056;SDS011;75393;49.516;8.662;2024-01-07T12:30:25;5.07;;;2.47;;
85056;SDS011;75393;49.516;8.662;2024-01-07T12:32:54;6.18;;;2.80;;
85056;SDS011;75393;49.516;8.662;2024-01-07T12:35:20;5.35;;;2.42;;
85056;SDS011;75393;49.516;8.662;2024-01-07T12:37:45;5.72;;;2.60;;
85056;SDS011;75393;49.516;8.662;2024-01-07T12:40:11;7.32;;;2.30;;
85056;SDS011;75393;49.516;8.662;2024-01-07T12:42:37;7.15;;;2.42;;
85056;SDS011;75393;49.516;8.662;2024-01-07T12:45:15;6.00;;;2.40;;
85056;SDS011;75393;49.516;8.662;2024-01-07T12:47:41;8.55;;;2.20;;
85056;SDS011;75393;49.516;8.662;2024-01-07T12:50:09;7.80;;;2.38;;
85056;SDS011;75393;49.516;8.662;2024-01-07T12:52:36;5.53;;;2.08;;
85056;SDS011;75393;49.516;8.662;2024-01-07T12:55:02;5.78;;;2.38;;
85056;SDS011;75393;49.516;8.662;2024-01-07T12:57:28;5.15;;;2.17;;
85056;SDS011;75393;49.516;8.662;2024-01-07T12:59:53;4.68;;;1.67;;
85056;SDS011;75393;49.516;8.662;2024-01-07T13:02:19;3.65;;;1.83;;
85056;SDS011;75393;49.516;8.662;2024-01-07T13:04:44;6.50;;;2.03;;
85056;SDS011;75393;49.516;8.662;2024-01-07T13:07:10;4.35;;;2.08;;
85056;SDS011;75393;49.516;8.662;2024-01-07T13:09:35;3.05;;;2.33;;
85056;SDS011;75393;49.516;8.662;2024-01-07T13:12:00;6.67;;;2.60;;
85056;SDS011;75393;49.516;8.662;2024-01-07T13:14:26;4.63;;;2.28;;
85056;SDS011;75393;49.516;8.662;2024-01-07T13:16:51;3.85;;;2.15;;
85056;SDS011;75393;49.516;8.662;2024-01-07T13:19:17;8.00;;;2.22;;
85056;SDS011;75393;49.516;8.662;2024-01-07T13:21:42;3.70;;;1.70;;
85056;SDS011;75393;49.516;8.662;2024-01-07T13:24:08;5.28;;;2.40;;
85056;SDS011;75393;49.516;8.662;2024-01-07T13:26:33;3.97;;;1.83;;
85056;SDS011;75393;49.516;8.662;2024-01-07T13:28:58;5.32;;;2.05;;
85056;SDS011;75393;49.516;8.662;2024-01-07T13:31:23;6.13;;;2.30;;
85056;SDS011;75393;49.516;8.662;2024-01-07T13:33:49;7.63;;;2.72;;
85056;SDS011;75393;49.516;8.662;2024-01-07T13:36:14;4.10;;;2.67;;
85056;SDS011;75393;49.516;8.662;2024-01-07T13:38:39;6.05;;;2.50;;
85056;SDS011;75393;49.516;8.662;2024-01-07T13:41:06;11.43;;;2.95;;
85056;SDS011;75393;49.516;8.662;2024-01-07T13:43:33;6.70;;;2.65;;
85056;SDS011;75393;49.516;8.662;2024-01-07T13:45:58;9.38;;;2.92;;
85056;SDS011;75393;49.516;8.662;2024-01-07T13:48:23;4.72;;;2.95;;
85056;SDS011;75393;49.516;8.662;2024-01-07T13:50:49;6.03;;;2.83;;
85056;SDS011;75393;49.516;8.662;2024-01-07T13:53:14;7.05;;;3.50;;
85056;SDS011;75393;49.516;8.662;2024-01-07T13:55:40;10.27;;;4.57;;
85056;SDS011;75393;49.516;8.662;2024-01-07T13:58:05;8.30;;;3.47;;
85056;SDS011;75393;49.516;8.662;2024-01-07T14:00:30;10.32;;;3.90;;
85056;SDS011;75393;49.516;8.662;2024-01-07T14:02:56;11.27;;;4.32;;
85056;SDS011;75393;49.516;8.662;2024-01-07T14:05:22;12.60;;;5.20;;
85056;SDS011;75393;49.516;8.662;2024-01-07T14:07:47;11.45;;;4.75;;
85056;SDS011;75393;49.516;8.662;2024-01-07T14:10:13;9.38;;;4.22;;
85056;SDS011;75393;49.516;8.662;2024-01-07T14:12:38;10.85;;;4.47;;
85056;SDS011;75393;49.516;8.662;2024-01-07T14:15:03;13.20;;;4.85;;
85056;SDS011;75393;49.516;8.662;2024-01-07T14:17:29;12.65;;;5.05;;
85056;SDS011;75393;49.516;8.662;2024-01-07T14:19:55;13.05;;;5.38;;
85056;SDS011;75393;49.516;8.662;2024-01-07T14:22:20;13.18;;;4.65;;
85056;SDS011;75393;49.516;8.662;2024-01-07T14:24:46;11.07;;;4.18;;
85056;SDS011;75393;49.516;8.662;2024-01-07T14:27:12;14.77;;;6.07;;
85056;SDS011;75393;49.516;8.662;2024-01-07T14:29:39;14.10;;;4.63;;
85056;SDS011;75393;49.516;8.662;2024-01-07T14:32:05;9.23;;;4.00;;
85056;SDS011;75393;49.516;8.662;2024-01-07T14:34:31;13.05;;;4.68;;
85056;SDS011;75393;49.516;8.662;2024-01-07T14:36:56;12.50;;;4.40;;
85056;SDS011;75393;49.516;8.662;2024-01-07T14:39:21;13.65;;;4.70;;
85056;SDS011;75393;49.516;8.662;2024-01-07T14:41:47;11.50;;;4.70;;
85056;SDS011;75393;49.516;8.662;2024-01-07T14:44:12;10.35;;;4.85;;
85056;SDS011;75393;49.516;8.662;2024-01-07T14:46:38;11.65;;;4.10;;
85056;SDS011;75393;49.516;8.662;2024-01-07T14:49:03;9.52;;;4.45;;
85056;SDS011;75393;49.516;8.662;2024-01-07T14:51:29;10.05;;;3.72;;
85056;SDS011;75393;49.516;8.662;2024-01-07T14:53:56;12.50;;;4.47;;
85056;SDS011;75393;49.516;8.662;2024-01-07T14:56:22;10.70;;;4.75;;